Nearby METAR Reports

 

KVNY - Van Nuys, California, USA
Distance from station: E 7mi, 11km
Updated: 05/21/2024 5:51pm
Clear
Clear
 Wind from SSE
Wind: SSE 10 mph, 17 km/h
Temperature: 70°F, 21°C
Dew Point: 52°F, 11°C
Humidity: 53%
Barometer: 29.89 inHg, 1012.2 hPa
Clouds: Clear
Visibility: 10 miles, 16 km
2024/05/22 00:51 KVNY 220051Z 16009KT 10SM CLR 21/11 A2989 RMK AO2 SLP116 T02060111
KWHP - La / Whiteman, California, USA
Distance from station: ENE 11mi, 17km
Updated: 05/21/2024 5:55pm
Clear
Clear
 Wind from SE
Wind: SE 9 mph, 15 km/h
Temperature: 68°F, 20°C
Dew Point: 50°F, 10°C
Humidity: 53%
Barometer: 29.92 inHg, 1013.2 hPa
Clouds: Clear
Visibility: 10 miles, 16 km
2024/05/22 00:55 KWHP 220055Z 13008KT 10SM SKC 20/10 A2992
 
KBUR - Burbank, California, USA
Distance from station: E 13mi, 22km
Updated: 05/21/2024 5:53pm
Clear
Clear
 Wind from S
Wind: S 9 mph, 15 km/h
Temperature: 66°F, 19°C
Dew Point: 52°F, 11°C
Humidity: 60%
Barometer: 29.90 inHg, 1012.5 hPa
Clouds: Clear
Visibility: 10 miles, 16 km
2024/05/22 00:53 KBUR 220053Z 19008KT 10SM CLR 19/11 A2990 RMK AO2 SLP117 T01940106
KSMO - Santa Monica, California, USA
Distance from station: SSE 16mi, 26km
Updated: 05/21/2024 5:51pm
Clear
Clear
 Wind from WSW
Wind: WSW 10 mph, 17 km/h
Temperature: 63°F, 17°C
Dew Point: 55°F, 13°C
Humidity: 77%
Barometer: 29.92 inHg, 1013.2 hPa
Clouds: Clear
Visibility: 10 miles, 16 km
2024/05/22 00:51 KSMO 220051Z 24009KT 10SM CLR 17/13 A2992 RMK AO2 SLP132 T01670133
 
KCQT - Los Angeles, California, USA
Distance from station: SE 23mi, 37km
Updated: 05/20/2024 7:47am
NOT Current
Overcast
Overcast
 Wind from calm
Wind: Calm
Temperature: 61°F, 16°C
Dew Point: 52°F, 11°C
Humidity: 72%
Barometer: 30.01 inHg, 1016.3 hPa
Clouds: Overcast
Visibility: 10 miles, 16 km
Cloud details: Overcast 2500 ft
2024/05/20 14:47 KCQT 201447Z AUTO 00000KT 10SM OVC025 16/11 A3001 RMK AO2 SLP161 T01560111 53013
KLAX - Los Angeles, California, USA
Distance from station: SSE 23mi, 37km
Updated: 05/21/2024 5:53pm
Few Clouds
Few Clouds
 Wind from W
Wind: W 16 mph, 26 km/h, Gust: 25 mph, 41 km/h
Temperature: 63°F, 17°C
Dew Point: 54°F, 12°C
Humidity: 73%
Barometer: 29.93 inHg, 1013.5 hPa
Clouds: Few Clouds
Visibility: 10 miles, 16 km
Cloud details: Few Clouds 1400 ft
2024/05/22 00:53 KLAX 220053Z 28014G22KT 10SM FEW014 17/12 A2993 RMK AO2 SLP133 T01670117
 
KHHR - Hawthorne, California, USA
Distance from station: SE 26mi, 41km
Updated: 05/21/2024 5:53pm
Clear
Clear
 Wind from WSW
Wind: WSW 12 mph, 19 km/h
Temperature: 64°F, 18°C
Dew Point: 52°F, 11°C
Humidity: 64%
Barometer: 29.92 inHg, 1013.2 hPa
Clouds: Clear
Visibility: 10 miles, 16 km
2024/05/22 00:53 KHHR 220053Z 25010KT 10SM CLR 18/11 A2992 RMK AO2 SLP132 T01780111
KCMA - Camarillo, California, USA
Distance from station: W 29mi, 46km
Updated: 05/21/2024 5:55pm
Clear
Clear
 Wind from WSW
Wind: WSW 8 mph, 13 km/h
Temperature: 66°F, 19°C
Dew Point: 52°F, 11°C
Humidity: 60%
Barometer: 29.92 inHg, 1013.2 hPa
Clouds: Clear
Visibility: 10 miles, 16 km
2024/05/22 00:55 KCMA 220055Z 24007KT 10SM CLR 19/11 A2992 RMK AO2 SLP140 T01940111
 
KNTD - Point Mugu Nas, California, USA
Distance from station: WSW 30mi, 49km
Updated: 05/21/2024 5:55pm
Few Clouds
Few Clouds
 Wind from WSW
Wind: WSW 12 mph, 19 km/h
Temperature: 61°F, 16°C
Dew Point: 54°F, 12°C
Humidity: 77%
Barometer: 29.94 inHg, 1013.9 hPa
Clouds: Few Clouds
Visibility: 10 miles, 16 km
Cloud details: Few Clouds 1800 ft
2024/05/22 00:55 KNTD 220055Z 25010KT 10SM FEW018 16/12 A2994 RMK AO2 SLP139 T01610122 PNO $
KMWS - Mount Wilson, California, USA
Distance from station: E 31mi, 51km
Updated: 05/13/2015 6:45am
NOT Current

 Wind from S
Wind: S 3 mph, 6 km/h, Gust: 5 mph, 7 km/h
Temperature: 43°F, 6°C
Dew Point: -0°F, -18°C
Humidity: 16%
2015/05/13 13:45 KMWS 131345Z 18003G04KT 06/M18 RMK SNOW DEPTH 1.00
 
KOXR - Oxnard, California, USA
Distance from station: W 34mi, 55km
Updated: 05/21/2024 5:51pm
Few Clouds
Few Clouds
 Wind from W
Wind: W 13 mph, 20 km/h
Temperature: 63°F, 17°C
Dew Point: 54°F, 12°C
Humidity: 73%
Clouds: Few Clouds
Visibility: 10 miles, 16 km
Cloud details: Few Clouds 1200 ft
2024/05/22 00:51 KOXR 220051Z 27011KT 10SM FEW012 17/12 RMK AO2 SLPNO T01670122 $
KTOA - Torrance Municip, California, USA
Distance from station: SSE 34mi, 55km
Updated: 05/21/2024 5:47pm
Clear
Clear
 Wind from W
Wind: W 15 mph, 24 km/h
Temperature: 63°F, 17°C
Dew Point: 54°F, 12°C
Humidity: 73%
Barometer: 29.92 inHg, 1013.2 hPa
Clouds: Clear
Visibility: 10 miles, 16 km
2024/05/22 00:47 KTOA 220047Z 26013KT 10SM SKC 17/12 A2992
 
KEMT - El Monte, California, USA
Distance from station: ESE 35mi, 56km
Updated: 05/21/2024 6:45pm
Clear
Clear
 Wind from SSW
Wind: SSW 9 mph, 15 km/h
Temperature: 66°F, 19°C
Dew Point: 52°F, 11°C
Humidity: 60%
Barometer: 29.91 inHg, 1012.9 hPa
Clouds: Clear
Visibility: 10 miles, 16 km
2024/05/22 01:45 KEMT 220145Z 21008KT 190V260 10SM CLR 19/11 A2991
KSDB - Sandberg, California, USA
Distance from station: N 37mi, 60km
Updated: 05/21/2024 5:51pm
Clear
Clear
 Wind from NW
Wind: NW 14 mph, 22 km/h
Temperature: 68°F, 20°C
Dew Point: 37°F, 3°C
Humidity: 33%
Barometer: 30.01 inHg, 1016.3 hPa
Clouds: Clear
Visibility: 10 miles, 16 km
2024/05/22 00:51 KSDB 220051Z AUTO 32012KT 10SM CLR 20/03 A3001 RMK AO2 SLP120 T02000033
 
KLGB - Long Beach, California, USA
Distance from station: SE 38mi, 61km
Updated: 05/21/2024 5:53pm
Clear
Clear
 Wind from NW
Wind: NW 12 mph, 19 km/h
Temperature: 70°F, 21°C
Dew Point: 52°F, 11°C
Humidity: 53%
Barometer: 29.91 inHg, 1012.9 hPa
Clouds: Clear
Visibility: 10 miles, 16 km
2024/05/22 00:53 KLGB 220053Z 32010KT 10SM CLR 21/11 A2991 RMK AO2 SLP128 T02060106
KPMD - Palmdale, California, USA
Distance from station: NE 41mi, 66km
Updated: 05/21/2024 5:53pm
Clear
Clear
 Wind from SW
Wind: SW 16 mph, 26 km/h
Temperature: 81°F, 27°C
Dew Point: 43°F, 6°C
Humidity: 26%
Barometer: 29.88 inHg, 1011.9 hPa
Clouds: Clear
Visibility: 10 miles, 16 km
2024/05/22 00:53 KPMD 220053Z 22014KT 10SM CLR 27/06 A2988 RMK AO2 SLP100 T02670056
 
KWJF - Lancaster/Fox, California, USA
Distance from station: NNE 41mi, 66km
Updated: 05/21/2024 5:56pm
Clear
Clear
 Wind from WSW
Wind: WSW 16 mph, 26 km/h
Temperature: 81°F, 27°C
Dew Point: 39°F, 4°C
Humidity: 23%
Barometer: 29.86 inHg, 1011.2 hPa
Clouds: Clear
Visibility: 10 miles, 16 km
2024/05/22 00:56 KWJF 220056Z 25014KT 10SM CLR 27/04 A2986 RMK AO2 SLP100 T02720044
KFUL - Fullerton, California, USA
Distance from station: SE 43mi, 69km
Updated: 05/21/2024 5:53pm
Clear
Clear
 Wind from S
Wind: S 9 mph, 15 km/h
Temperature: 70°F, 21°C
Dew Point: 52°F, 11°C
Humidity: 53%
Barometer: 29.90 inHg, 1012.5 hPa
Clouds: Clear
Visibility: 10 miles, 16 km
2024/05/22 00:53 KFUL 220053Z 19008KT 10SM CLR 21/11 A2990 RMK AO2 SLP123 T02110106
 
KSFO - San Francisco, California, USA
Distance from station: NW 314mi, 505km
Updated: 05/21/2024 5:56pm
Clear
Clear
 Wind from WNW
Wind: WNW 20 mph, 31 km/h
Temperature: 70°F, 21°C
Dew Point: 46°F, 8°C
Humidity: 43%
Barometer: 29.93 inHg, 1013.5 hPa
Clouds: Clear
Visibility: 10 miles, 16 km
2024/05/22 00:56 KSFO 220056Z 29017KT 10SM CLR 21/08 A2993 RMK AO2 PK WND 29026/0024 SLP133 T02110083 $
KL35 - Big Bear City, California, USA
Distance from station: E 101mi, 162km
Updated: 05/21/2024 6:35pm
Clear
Clear
 Wind from N
Wind: N 6 mph, 9 km/h
Temperature: 59°F, 15°C
Dew Point: 21°F, -6°C
Humidity: 23%
Barometer: 30.09 inHg, 1019 hPa
Clouds: Clear
Visibility: 10 miles, 16 km
2024/05/22 01:35 KL35 220135Z AUTO 01005KT 10SM CLR 15/M06 A3009 RMK AO2